createdAt,value
2019-02-22T00:02:15.331Z,81.08
2019-02-22T00:04:45.705Z,80.21
2019-02-22T00:07:15.976Z,80.82
2019-02-22T00:09:49.402Z,80.64
2019-02-22T00:12:18.343Z,80.70
2019-02-22T00:14:48.634Z,80.46
2019-02-22T00:17:19.181Z,81.57
2019-02-22T00:19:49.545Z,80.76
2019-02-22T00:22:19.805Z,81.19
2019-02-22T00:24:50.101Z,81.30
2019-02-22T00:27:20.460Z,79.73
2019-02-22T00:29:50.751Z,80.10
2019-02-22T00:32:21.048Z,79.86
2019-02-22T00:34:51.368Z,79.53
2019-02-22T00:37:21.650Z,80.06
2019-02-22T00:39:51.906Z,79.86
2019-02-22T00:42:22.168Z,79.28
2019-02-22T00:44:52.466Z,78.85
2019-02-22T00:47:22.738Z,78.85
2019-02-22T00:49:53.023Z,79.27
2019-02-22T00:52:23.291Z,78.47
2019-02-22T00:54:53.582Z,78.76
2019-02-22T00:57:23.854Z,79.20
2019-02-22T00:59:54.129Z,79.44
2019-02-22T01:02:24.404Z,79.87
2019-02-22T01:04:54.787Z,79.88
2019-02-22T01:07:25.035Z,80.44
2019-02-22T01:09:55.520Z,80.84
2019-02-22T01:12:25.801Z,81.05
2019-02-22T01:14:56.097Z,80.58
2019-02-22T01:17:26.347Z,80.55
2019-02-22T01:19:56.665Z,81.16
2019-02-22T01:22:26.934Z,80.53
2019-02-22T01:24:57.206Z,80.77
2019-02-22T01:27:27.567Z,82.55
2019-02-22T01:29:57.838Z,83.30
2019-02-22T01:32:28.123Z,83.07
2019-02-22T01:34:58.371Z,84.04
2019-02-22T01:37:29.615Z,84.27
2019-02-22T01:39:59.876Z,84.36
2019-02-22T01:42:30.153Z,84.12
2019-02-22T01:45:00.536Z,83.49
2019-02-22T01:47:30.779Z,83.76
2019-02-22T01:50:01.034Z,83.75
2019-02-22T01:52:33.217Z,83.68
2019-02-22T01:55:03.465Z,83.50
2019-02-22T01:57:33.736Z,83.50
2019-02-22T02:00:04.958Z,83.45
2019-02-22T02:02:37.286Z,83.49
2019-02-22T02:05:07.575Z,83.79
2019-02-22T02:07:37.846Z,84.06
2019-02-22T02:10:08.455Z,83.56
2019-02-22T02:12:39.046Z,83.43
2019-02-22T02:15:09.300Z,82.94
2019-02-22T02:17:39.566Z,82.99
2019-02-22T02:20:09.850Z,82.85
2019-02-22T02:22:40.085Z,83.01
2019-02-22T02:25:10.632Z,83.48
2019-02-22T02:27:40.933Z,83.41
2019-02-22T02:30:11.225Z,83.52
2019-02-22T02:32:42.369Z,83.28
2019-02-22T02:35:12.648Z,83.07
2019-02-22T02:37:42.943Z,83.37
2019-02-22T02:40:13.286Z,83.01
2019-02-22T02:42:43.757Z,83.10
2019-02-22T02:45:14.018Z,82.83
2019-02-22T02:47:44.305Z,82.38
2019-02-22T02:50:16.701Z,81.87
2019-02-22T02:52:46.960Z,82.16
2019-02-22T02:55:31.905Z,82.42
2019-02-22T02:58:02.171Z,81.81
2019-02-22T03:00:32.424Z,80.94
2019-02-22T03:03:02.671Z,80.49
2019-02-22T03:05:43.363Z,80.96
2019-02-22T03:08:13.689Z,80.87
2019-02-22T03:10:43.960Z,80.91
2019-02-22T03:13:14.231Z,80.76
2019-02-22T03:15:44.500Z,80.79
2019-02-22T03:18:14.783Z,79.92
2019-02-22T03:20:45.040Z,79.62
2019-02-22T03:23:15.301Z,79.77
2019-02-22T03:25:47.287Z,80.05
2019-02-22T03:28:17.558Z,79.32
2019-02-22T03:30:47.804Z,79.14
2019-02-22T03:33:18.347Z,79.25
2019-02-22T03:35:48.150Z,78.34
2019-02-22T03:38:18.423Z,79.01
2019-02-22T03:40:48.724Z,79.26
2019-02-22T03:43:21.351Z,78.68
2019-02-22T03:45:51.622Z,78.64
2019-02-22T03:48:22.033Z,78.76
2019-02-22T03:50:52.279Z,79.19
2019-02-22T03:53:27.329Z,78.95
2019-02-22T03:55:57.659Z,79.66
2019-02-22T03:58:27.954Z,79.84
2019-02-22T04:00:58.977Z,79.73
2019-02-22T04:03:29.244Z,80.20
2019-02-22T04:05:59.512Z,80.29
2019-02-22T04:08:29.843Z,80.30
2019-02-22T04:11:00.122Z,80.60
2019-02-22T04:13:30.472Z,80.62
2019-02-22T04:16:00.863Z,79.79
2019-02-22T04:18:31.160Z,79.97
2019-02-22T04:21:01.437Z,80.35
2019-02-22T04:23:31.705Z,79.74
2019-02-22T04:26:01.981Z,79.62
2019-02-22T04:28:32.260Z,80.03
2019-02-22T04:31:02.605Z,79.59
2019-02-22T04:33:32.876Z,79.05
2019-02-22T04:36:03.152Z,78.29
2019-02-22T04:38:33.502Z,78.23
2019-02-22T04:41:03.851Z,77.29
2019-02-22T04:43:34.280Z,76.58
2019-02-22T04:46:04.547Z,76.50
2019-02-22T04:48:34.853Z,76.40
2019-02-22T04:51:05.200Z,76.58
2019-02-22T04:53:35.501Z,77.04
2019-02-22T04:56:05.849Z,76.76
2019-02-22T04:58:36.662Z,75.56
2019-02-22T05:01:07.062Z,75.71
2019-02-22T05:03:37.333Z,74.67
2019-02-22T05:06:07.679Z,75.29
2019-02-22T05:08:37.927Z,74.81
2019-02-22T05:11:11.147Z,75.18
2019-02-22T05:13:41.415Z,74.73
2019-02-22T05:16:11.696Z,73.65
2019-02-22T05:18:41.973Z,73.90
2019-02-22T05:21:12.238Z,73.99
2019-02-22T05:23:42.507Z,72.80
2019-02-22T05:26:12.784Z,72.77
2019-02-22T05:28:43.070Z,72.17
2019-02-22T05:31:13.357Z,71.54
2019-02-22T05:33:43.716Z,71.78
2019-02-22T05:36:14.014Z,71.37
2019-02-22T05:38:44.328Z,71.41
2019-02-22T05:41:14.732Z,71.96
2019-02-22T05:43:45.057Z,71.12
2019-02-22T05:46:15.344Z,71.38
2019-02-22T05:48:45.705Z,71.07
2019-02-22T05:51:16.031Z,72.02
2019-02-22T05:53:46.375Z,71.05
2019-02-22T05:56:16.620Z,71.02
2019-02-22T05:58:46.886Z,72.01
2019-02-22T06:01:17.246Z,72.70
2019-02-22T06:03:47.599Z,70.40
2019-02-22T06:06:17.839Z,71.31
2019-02-22T06:08:48.208Z,70.21
2019-02-22T06:11:18.499Z,70.08
2019-02-22T06:13:48.785Z,63.22
2019-02-22T06:16:19.060Z,61.65
2019-02-22T06:18:50.314Z,59.80
2019-02-22T06:21:20.585Z,59.69
2019-02-22T06:23:50.860Z,56.40
2019-02-22T06:26:21.138Z,58.47
2019-02-22T06:28:51.577Z,55.98
2019-02-22T06:31:21.897Z,48.87
2019-02-22T06:33:52.144Z,53.30
2019-02-22T06:36:22.429Z,55.37
2019-02-22T06:38:52.699Z,55.27
2019-02-22T06:41:22.996Z,55.38
2019-02-22T06:43:53.326Z,58.05
2019-02-22T06:46:23.614Z,61.63
2019-02-22T06:48:53.895Z,62.59
2019-02-22T06:51:24.165Z,62.23
2019-02-22T06:53:55.563Z,63.04
2019-02-22T06:56:25.834Z,63.54
2019-02-22T06:58:56.115Z,62.32
2019-02-22T07:01:26.407Z,63.01
2019-02-22T07:03:56.687Z,64.35
2019-02-22T07:06:26.958Z,64.76
2019-02-22T07:08:57.208Z,64.38
2019-02-22T07:11:29.223Z,64.05
2019-02-22T07:14:00.566Z,64.17
2019-02-22T07:16:30.846Z,64.35
2019-02-22T07:19:01.473Z,63.22
2019-02-22T07:21:49.143Z,63.02
2019-02-22T07:24:03.839Z,63.75
2019-02-22T07:26:35.080Z,61.43
2019-02-22T07:29:05.355Z,61.48
2019-02-22T07:31:35.653Z,60.81
2019-02-22T07:34:05.924Z,60.66
2019-02-22T07:36:36.220Z,60.74
2019-02-22T07:39:06.964Z,61.08
2019-02-22T07:41:37.279Z,60.28
2019-02-22T07:44:08.632Z,61.22
2019-02-22T07:46:38.896Z,59.92
2019-02-22T07:49:09.180Z,59.62
2019-02-22T07:51:39.444Z,61.31
2019-02-22T07:54:09.714Z,58.88
2019-02-22T07:56:40.012Z,59.49
2019-02-22T07:59:10.289Z,58.10
2019-02-22T08:01:47.303Z,59.08
2019-02-22T08:04:12.657Z,59.25
2019-02-22T08:06:42.938Z,59.61
2019-02-22T08:09:13.201Z,59.10
2019-02-22T08:11:43.480Z,59.17
2019-02-22T08:14:13.784Z,59.35
2019-02-22T08:16:44.066Z,59.30
2019-02-22T08:19:14.353Z,58.91
2019-02-22T08:21:44.719Z,60.56
2019-02-22T08:24:15.375Z,58.41
2019-02-22T08:26:45.629Z,57.97
2019-02-22T08:29:15.940Z,58.08
2019-02-22T08:31:46.295Z,58.14
2019-02-22T08:34:16.621Z,57.70
2019-02-22T08:36:46.891Z,58.42
2019-02-22T08:39:17.166Z,56.77
2019-02-22T08:41:47.569Z,56.79
2019-02-22T08:44:17.812Z,57.13
2019-02-22T08:46:48.132Z,56.24
2019-02-22T08:49:18.383Z,54.60
2019-02-22T08:51:48.660Z,53.36
2019-02-22T08:54:18.993Z,52.36
2019-02-22T08:56:49.324Z,51.72
2019-02-22T08:59:19.612Z,50.80
2019-02-22T09:01:49.903Z,51.21
2019-02-22T09:04:20.179Z,48.08
2019-02-22T09:06:52.398Z,49.79
2019-02-22T09:09:22.444Z,47.78
2019-02-22T09:11:52.733Z,47.85
2019-02-22T09:14:22.981Z,47.43
2019-02-22T09:16:54.254Z,47.85
2019-02-22T09:19:24.525Z,47.55
2019-02-22T09:21:54.975Z,47.10
2019-02-22T09:24:27.300Z,47.96
2019-02-22T09:26:57.703Z,49.32
2019-02-22T09:29:28.091Z,47.34
2019-02-22T09:31:58.839Z,48.33
2019-02-22T09:34:29.222Z,47.19
2019-02-22T09:36:59.615Z,46.99
2019-02-22T09:39:29.889Z,47.21
2019-02-22T09:42:00.160Z,47.04
2019-02-22T09:44:30.453Z,46.40
2019-02-22T09:47:00.756Z,45.33
2019-02-22T09:49:31.148Z,46.99
2019-02-22T09:52:01.423Z,45.93
2019-02-22T09:54:31.817Z,46.45
2019-02-22T09:57:02.149Z,45.06
2019-02-22T09:59:32.539Z,46.40
2019-02-22T10:02:02.753Z,44.70
2019-02-22T10:04:33.025Z,45.34
2019-02-22T10:07:03.293Z,45.35
2019-02-22T10:09:33.543Z,44.74
2019-02-22T10:12:03.870Z,47.32
2019-02-22T10:14:34.140Z,43.84
2019-02-22T10:17:07.770Z,43.51
2019-02-22T10:19:38.117Z,43.71
2019-02-22T10:22:08.387Z,43.99
2019-02-22T10:24:38.766Z,42.44
2019-02-22T10:27:11.949Z,43.09
2019-02-22T10:29:41.029Z,42.90
2019-02-22T10:32:11.319Z,43.04
2019-02-22T10:34:41.703Z,41.52
2019-02-22T10:37:11.974Z,42.44
2019-02-22T10:39:42.265Z,41.56
2019-02-22T10:42:12.542Z,41.08
2019-02-22T10:44:42.831Z,39.35
2019-02-22T10:47:13.140Z,40.63
2019-02-22T10:49:43.400Z,39.78
2019-02-22T10:52:13.685Z,42.15
2019-02-22T10:54:43.986Z,40.88
2019-02-22T10:57:14.285Z,40.20
2019-02-22T10:59:44.587Z,41.54
2019-02-22T11:02:14.882Z,40.83
2019-02-22T11:04:45.180Z,42.83
2019-02-22T11:07:15.434Z,43.78
2019-02-22T11:09:45.716Z,42.92
2019-02-22T11:12:17.663Z,42.57
2019-02-22T11:14:47.943Z,42.75
2019-02-22T11:17:18.227Z,43.15
2019-02-22T11:19:48.589Z,42.44
2019-02-22T11:22:18.862Z,41.31
2019-02-22T11:24:49.141Z,41.04
2019-02-22T11:27:19.413Z,41.58
2019-02-22T11:29:49.706Z,39.55
2019-02-22T11:32:19.975Z,39.06
2019-02-22T11:34:50.323Z,38.07
2019-02-22T11:37:20.606Z,39.72
2019-02-22T11:39:50.949Z,38.52
2019-02-22T11:42:21.487Z,38.30
2019-02-22T11:44:51.776Z,38.81
2019-02-22T11:47:22.126Z,39.79
2019-02-22T11:49:52.379Z,39.30
2019-02-22T11:52:22.853Z,38.77
2019-02-22T11:54:53.150Z,40.00
2019-02-22T11:57:23.421Z,41.38
2019-02-22T11:59:53.729Z,40.18
2019-02-22T12:02:25.143Z,38.96
2019-02-22T12:04:55.418Z,39.82
2019-02-22T12:07:25.693Z,40.17
2019-02-22T12:09:56.018Z,39.08
2019-02-22T12:12:26.495Z,38.82
2019-02-22T12:14:56.791Z,37.31
2019-02-22T12:17:27.069Z,37.39
2019-02-22T12:19:57.392Z,39.24
2019-02-22T12:22:27.664Z,39.00
2019-02-22T12:24:57.939Z,40.38
2019-02-22T12:27:28.218Z,40.74
2019-02-22T12:29:58.479Z,39.76
2019-02-22T12:32:28.763Z,40.40
2019-02-22T12:34:59.025Z,40.89
2019-02-22T12:37:29.303Z,40.41
2019-02-22T12:39:59.655Z,39.83
2019-02-22T12:42:30.215Z,40.43
2019-02-22T12:45:03.161Z,39.54
2019-02-22T12:47:32.527Z,40.19
2019-02-22T12:50:02.909Z,38.50
2019-02-22T12:52:34.269Z,39.60
2019-02-22T12:55:09.638Z,39.73
2019-02-22T12:57:39.981Z,40.56
2019-02-22T13:00:15.725Z,39.92
2019-02-22T13:02:47.335Z,38.93
2019-02-22T13:05:23.625Z,37.91
2019-02-22T13:07:54.003Z,37.77
2019-02-22T13:10:24.326Z,38.51
2019-02-22T13:12:54.623Z,39.30
2019-02-22T13:15:24.933Z,39.30
2019-02-22T13:17:55.221Z,38.84
2019-02-22T13:20:25.520Z,38.05
2019-02-22T13:22:55.799Z,36.67
2019-02-22T13:25:26.066Z,36.66
2019-02-22T13:27:56.361Z,36.67
2019-02-22T13:30:26.655Z,37.12
2019-02-22T13:32:55.988Z,38.59
2019-02-22T13:35:26.292Z,38.13
2019-02-22T13:37:56.616Z,36.98
2019-02-22T13:40:26.837Z,36.73
2019-02-22T13:42:57.111Z,36.47
2019-02-22T13:45:27.433Z,38.16
2019-02-22T13:47:57.709Z,39.36
2019-02-22T13:50:28.005Z,40.10
2019-02-22T13:52:58.273Z,39.11
2019-02-22T13:55:28.552Z,39.07
2019-02-22T13:57:58.808Z,39.76
2019-02-22T14:00:29.170Z,39.99
2019-02-22T14:02:59.445Z,37.60
2019-02-22T14:05:29.777Z,38.09
2019-02-22T14:08:00.175Z,38.45
2019-02-22T14:10:30.507Z,37.49
2019-02-22T14:13:01.106Z,37.64
2019-02-22T14:15:38.076Z,38.71
2019-02-22T14:18:05.078Z,39.14
2019-02-22T14:20:37.485Z,38.73
2019-02-22T14:23:08.024Z,39.25
2019-02-22T14:25:38.301Z,38.72
2019-02-22T14:28:08.597Z,39.18
2019-02-22T14:30:38.848Z,39.64
2019-02-22T14:33:09.789Z,39.33
2019-02-22T14:35:40.040Z,40.05
2019-02-22T14:38:10.445Z,39.95
2019-02-22T14:40:40.756Z,38.65
2019-02-22T14:43:16.600Z,39.68
2019-02-22T14:45:49.255Z,39.02
2019-02-22T14:48:15.154Z,40.45
2019-02-22T14:50:45.553Z,38.63
2019-02-22T14:53:19.790Z,39.25
2019-02-22T14:55:49.733Z,39.84
2019-02-22T14:58:20.079Z,39.81
2019-02-22T15:00:50.738Z,39.59
2019-02-22T15:03:21.064Z,41.28
2019-02-22T15:05:52.342Z,40.25
2019-02-22T15:08:24.383Z,41.46
2019-02-22T15:10:55.091Z,39.76
2019-02-22T15:13:26.340Z,40.08
2019-02-22T15:16:01.069Z,39.99
2019-02-22T15:18:30.624Z,40.16
2019-02-22T15:21:01.996Z,41.01
2019-02-22T15:23:32.411Z,40.42
2019-02-22T15:26:02.682Z,41.55
2019-02-22T15:28:32.969Z,39.25
2019-02-22T15:31:03.587Z,39.89
2019-02-22T15:33:34.713Z,40.27
2019-02-22T15:36:05.874Z,40.62
2019-02-22T15:38:36.236Z,39.08
2019-02-22T15:41:06.548Z,39.49
2019-02-22T15:43:36.920Z,39.57
2019-02-22T15:46:12.101Z,39.55
2019-02-22T15:48:39.900Z,40.79
2019-02-22T15:51:10.243Z,39.89
2019-02-22T15:53:40.723Z,39.75
2019-02-22T15:56:12.014Z,40.67
2019-02-22T15:58:42.290Z,41.68
2019-02-22T16:01:14.393Z,41.90
2019-02-22T16:03:48.960Z,40.94
2019-02-22T16:06:19.377Z,41.88
2019-02-22T16:08:49.693Z,41.44
2019-02-22T16:11:20.027Z,41.31
2019-02-22T16:13:50.375Z,40.44
2019-02-22T16:16:23.520Z,40.08
2019-02-22T16:18:52.722Z,39.18
2019-02-22T16:21:23.064Z,36.21
2019-02-22T16:23:53.591Z,34.29
2019-02-22T16:26:31.040Z,37.47
2019-02-22T16:29:01.790Z,39.61
2019-02-22T16:31:32.191Z,39.40
2019-02-22T16:34:02.457Z,39.61
2019-02-22T16:36:32.794Z,41.98
2019-02-22T16:39:04.780Z,41.56
2019-02-22T16:41:36.667Z,41.60
2019-02-22T16:44:06.937Z,40.92
2019-02-22T16:46:37.248Z,42.09
2019-02-22T16:49:07.536Z,42.53
2019-02-22T16:51:37.807Z,41.75
2019-02-22T16:54:08.080Z,42.07
2019-02-22T16:56:38.375Z,44.96
2019-02-22T16:59:08.685Z,43.28
2019-02-22T17:01:38.976Z,44.36
2019-02-22T17:04:09.279Z,44.35
2019-02-22T17:06:39.574Z,44.31
2019-02-22T17:09:09.980Z,45.59
2019-02-22T17:11:40.472Z,45.33
2019-02-22T17:14:11.251Z,44.07
2019-02-22T17:16:45.733Z,43.34
2019-02-22T17:19:13.656Z,44.99
2019-02-22T17:21:44.094Z,46.12
2019-02-22T17:24:14.974Z,45.07
2019-02-22T17:26:45.317Z,44.13
2019-02-22T17:29:15.614Z,43.95
2019-02-22T17:31:45.946Z,45.49
2019-02-22T17:34:17.970Z,43.14
2019-02-22T17:36:48.920Z,45.72
2019-02-22T17:39:20.013Z,43.91
2019-02-22T17:41:50.340Z,45.65
2019-02-22T17:44:20.771Z,43.89
2019-02-22T17:46:57.644Z,46.06
2019-02-22T17:49:23.861Z,43.16
2019-02-22T17:51:54.374Z,43.24
2019-02-22T17:54:24.663Z,42.54
2019-02-22T17:56:55.490Z,44.77
2019-02-22T17:59:25.832Z,43.94
2019-02-22T18:01:56.129Z,42.66
2019-02-22T18:04:26.398Z,44.76
2019-02-22T18:06:56.810Z,45.68
2019-02-22T18:09:27.095Z,41.72
2019-02-22T18:11:57.659Z,43.81
2019-02-22T18:14:28.002Z,42.46
2019-02-22T18:17:08.129Z,42.19
2019-02-22T18:19:31.985Z,44.01
2019-02-22T18:22:02.473Z,44.39
2019-02-22T18:24:32.784Z,44.00
2019-02-22T18:27:03.211Z,44.58
2019-02-22T18:29:35.715Z,43.59
2019-02-22T18:32:05.967Z,43.67
2019-02-22T18:34:36.383Z,42.26
2019-02-22T18:37:06.760Z,43.20
2019-02-22T18:39:39.268Z,41.37
2019-02-22T18:42:10.559Z,41.88
2019-02-22T18:44:41.085Z,42.03
2019-02-22T18:47:19.277Z,44.32
2019-02-22T18:49:45.654Z,43.95
2019-02-22T18:52:16.112Z,43.40
2019-02-22T18:54:46.537Z,43.23
2019-02-22T18:57:18.375Z,41.55
2019-02-22T18:59:48.943Z,42.94
2019-02-22T19:02:19.232Z,42.69
2019-02-22T19:04:49.520Z,40.22
2019-02-22T19:07:19.827Z,43.15
2019-02-22T19:09:50.304Z,43.74
2019-02-22T19:12:20.558Z,42.73
2019-02-22T19:14:51.083Z,42.62
2019-02-22T19:17:30.205Z,43.21
2019-02-22T19:19:53.517Z,42.86
2019-02-22T19:22:23.856Z,43.73
2019-02-22T19:24:54.147Z,43.72
2019-02-22T19:27:24.462Z,43.40
2019-02-22T19:29:56.679Z,43.94
2019-02-22T19:32:27.028Z,43.82
2019-02-22T19:34:57.360Z,43.72
2019-02-22T19:37:29.343Z,43.46
2019-02-22T19:39:59.634Z,44.55
2019-02-22T19:42:29.985Z,43.57
2019-02-22T19:45:00.367Z,45.76
2019-02-22T19:47:41.175Z,45.28
2019-02-22T19:50:02.940Z,43.19
2019-02-22T19:52:33.253Z,45.59
2019-02-22T19:55:03.628Z,45.37
2019-02-22T19:57:33.996Z,45.31
2019-02-22T20:00:06.943Z,45.94
2019-02-22T20:02:38.521Z,44.84
2019-02-22T20:05:10.200Z,44.50
2019-02-22T20:07:41.874Z,43.99
2019-02-22T20:10:20.424Z,43.65
2019-02-22T20:12:50.898Z,44.95
2019-02-22T20:15:21.431Z,45.75
2019-02-22T20:17:54.943Z,45.30
2019-02-22T20:20:25.868Z,46.01
2019-02-22T20:22:56.261Z,46.70
2019-02-22T20:25:28.176Z,46.48
2019-02-22T20:27:58.730Z,48.21
2019-02-22T20:30:29.374Z,46.20
2019-02-22T20:32:59.857Z,46.33
2019-02-22T20:35:30.777Z,45.66
2019-02-22T20:38:01.221Z,45.16
2019-02-22T20:40:33.488Z,45.37
2019-02-22T20:43:04.729Z,45.00
2019-02-22T20:45:35.443Z,45.47
2019-02-22T20:48:07.183Z,44.87
2019-02-22T20:50:37.637Z,44.06
2019-02-22T20:53:08.193Z,45.06
2019-02-22T20:55:38.517Z,45.06
2019-02-22T20:58:10.438Z,44.15
2019-02-22T21:00:40.907Z,44.52
2019-02-22T21:03:12.896Z,45.14
2019-02-22T21:05:43.548Z,44.88
2019-02-22T21:08:14.438Z,45.74
2019-02-22T21:10:44.997Z,45.71
2019-02-22T21:13:15.294Z,46.87
2019-02-22T21:15:45.650Z,47.00
2019-02-22T21:18:17.503Z,48.21
2019-02-22T21:20:47.993Z,47.93
2019-02-22T21:23:19.465Z,47.95
2019-02-22T21:25:49.781Z,49.20
2019-02-22T21:28:20.153Z,48.91
2019-02-22T21:30:50.872Z,49.83
2019-02-22T21:33:21.249Z,49.44
2019-02-22T21:35:51.615Z,51.12
2019-02-22T21:38:21.929Z,50.29
2019-02-22T21:40:52.286Z,50.84
2019-02-22T21:43:23.570Z,51.01
2019-02-22T21:45:54.080Z,52.82
2019-02-22T21:48:27.577Z,50.86
2019-02-22T21:50:56.411Z,53.29
2019-02-22T21:53:26.786Z,53.26
2019-02-22T21:55:57.307Z,53.86
2019-02-22T21:58:27.662Z,51.87
2019-02-22T22:00:58.041Z,51.41
2019-02-22T22:03:28.403Z,50.87
2019-02-22T22:05:58.701Z,52.54
2019-02-22T22:08:29.002Z,53.00
2019-02-22T22:10:59.285Z,53.36
2019-02-22T22:13:30.199Z,52.40
2019-02-22T22:16:01.165Z,50.75
2019-02-22T22:18:38.903Z,50.43
2019-02-22T22:21:03.746Z,48.63
2019-02-22T22:23:34.144Z,48.68
2019-02-22T22:26:04.911Z,47.74
2019-02-22T22:28:35.290Z,46.98
2019-02-22T22:31:05.580Z,46.49
2019-02-22T22:33:36.049Z,46.71
2019-02-22T22:36:06.438Z,47.40
2019-02-22T22:38:37.684Z,47.41
2019-02-22T22:41:08.729Z,47.39
2019-02-22T22:43:39.018Z,47.17
2019-02-22T22:46:09.325Z,47.02
2019-02-22T22:48:50.128Z,47.17
2019-02-22T22:51:12.550Z,47.68
2019-02-22T22:53:42.839Z,46.99
2019-02-22T22:56:13.144Z,47.05
2019-02-22T22:58:43.428Z,47.53
2019-02-22T23:01:14.952Z,46.84
2019-02-22T23:03:45.296Z,47.17
2019-02-22T23:06:15.659Z,47.34
2019-02-22T23:08:45.934Z,47.51
2019-02-22T23:11:16.256Z,47.04
2019-02-22T23:13:46.555Z,47.58
2019-02-22T23:16:16.801Z,47.77
2019-02-22T23:18:47.129Z,47.83
2019-02-22T23:21:17.448Z,47.69
2019-02-22T23:23:47.765Z,48.12
2019-02-22T23:26:18.037Z,48.33
2019-02-22T23:28:48.380Z,48.07
2019-02-22T23:31:19.647Z,47.87
2019-02-22T23:33:49.935Z,48.82
2019-02-22T23:36:20.377Z,48.65
2019-02-22T23:38:50.665Z,48.47
2019-02-22T23:41:20.960Z,48.19
2019-02-22T23:43:51.261Z,47.90
2019-02-22T23:46:21.584Z,48.23
2019-02-22T23:48:51.891Z,48.29
2019-02-22T23:51:22.149Z,48.44
2019-02-22T23:53:52.523Z,48.60
2019-02-22T23:56:22.809Z,48.58
2019-02-22T23:58:53.097Z,47.92
